Cleveland, Ohio
Current Conditions -  °F | °C
As of 9:53 AM on Wednesday 26 Nov 2014 (Local Time) from KBKL Reporting Station
Overcast Overcast  
Wind Chill: 31°   Ceiling: 3200
Heat Index: 35°   Visibility: 10mi
Dew Point: 25°   Wind: 5mph
Humidity: 67%   Direction: 60°ENE
Pressure: 30.12"   Gusts: NA
Location:  41.5°N, 81.69°W
Report Text: KBKL 261453Z 06004KT 10SM OVC032 02/M04 A3012 RMK AO2 SLP205 T00171039 58004
Loading
Personal Weather Stations






























Interactive Weather Map New forecast layout! Learn more

10-Day Weather Forecast

Advertisements
Track Severe Weather on mobile